createdAt,value
2022-08-14T00:02:27.125Z,6.35
2022-08-14T00:04:55.429Z,6.28
2022-08-14T00:07:23.058Z,7.55
2022-08-14T00:09:55.813Z,5.00
2022-08-14T00:12:39.491Z,6.88
2022-08-14T00:15:18.460Z,7.22
2022-08-14T00:17:52.929Z,7.28
2022-08-14T00:20:35.939Z,5.68
2022-08-14T00:23:16.765Z,5.63
2022-08-14T00:25:53.894Z,7.05
2022-08-14T00:28:35.345Z,5.70
2022-08-14T00:31:05.310Z,10.70
2022-08-14T00:33:50.442Z,5.65
2022-08-14T00:36:36.955Z,6.27
2022-08-14T00:39:09.487Z,5.80
2022-08-14T00:41:39.004Z,6.88
2022-08-14T00:44:08.265Z,5.50
2022-08-14T00:46:38.548Z,6.40
2022-08-14T00:49:11.552Z,6.57
2022-08-14T00:51:44.273Z,8.20
2022-08-14T00:54:21.229Z,7.38
2022-08-14T00:56:55.445Z,6.53
2022-08-14T00:59:26.026Z,7.90
2022-08-14T01:02:00.583Z,8.57
2022-08-14T01:04:51.165Z,5.13
2022-08-14T01:07:21.992Z,9.27
2022-08-14T01:09:54.881Z,7.05
2022-08-14T01:12:27.029Z,8.07
2022-08-14T01:14:59.242Z,5.47
2022-08-14T01:17:49.875Z,8.00
2022-08-14T01:20:39.872Z,5.72
2022-08-14T01:23:18.873Z,7.28
2022-08-14T01:25:51.859Z,6.18
2022-08-14T01:28:46.650Z,5.00
2022-08-14T01:31:14.343Z,5.90
2022-08-14T01:35:16.110Z,5.50
2022-08-14T01:36:39.253Z,5.65
2022-08-14T01:39:18.701Z,8.20
2022-08-14T01:42:01.426Z,6.80
2022-08-14T01:44:33.721Z,6.32
2022-08-14T01:47:16.487Z,8.60
2022-08-14T01:49:59.873Z,5.97
2022-08-14T01:52:59.293Z,6.40
2022-08-14T01:55:23.315Z,5.43
2022-08-14T01:58:01.595Z,6.03
2022-08-14T02:00:39.564Z,5.35
2022-08-14T02:03:07.606Z,6.70
2022-08-14T02:05:38.624Z,6.68
2022-08-14T02:08:09.577Z,7.23
2022-08-14T02:10:46.239Z,5.75
2022-08-14T02:13:16.832Z,5.35
2022-08-14T02:15:45.806Z,5.82
2022-08-14T02:18:16.478Z,5.35
2022-08-14T02:20:47.588Z,6.27
2022-08-14T02:23:16.591Z,5.18
2022-08-14T02:25:59.604Z,8.00
2022-08-14T02:28:59.349Z,5.55
2022-08-14T02:31:42.516Z,6.07
2022-08-14T02:34:32.716Z,7.00
2022-08-14T02:37:12.198Z,6.15
2022-08-14T02:39:46.075Z,5.38
2022-08-14T02:42:23.626Z,9.68
2022-08-14T02:45:06.612Z,6.57
2022-08-14T02:47:34.307Z,5.33
2022-08-14T02:50:07.330Z,5.50
2022-08-14T02:53:07.399Z,6.88
2022-08-14T02:55:23.570Z,7.70
2022-08-14T02:57:58.147Z,7.50
2022-08-14T03:00:33.175Z,6.03
2022-08-14T03:03:07.611Z,8.77
2022-08-14T03:05:41.339Z,7.32
2022-08-14T03:08:16.007Z,6.25
2022-08-14T03:10:49.118Z,7.32
2022-08-14T03:13:21.628Z,7.80
2022-08-14T03:15:57.840Z,8.07
2022-08-14T03:18:30.896Z,6.38
2022-08-14T03:21:02.594Z,7.00
2022-08-14T03:23:37.815Z,6.32
2022-08-14T03:26:08.742Z,7.10
2022-08-14T03:28:43.081Z,7.57
2022-08-14T03:31:13.217Z,11.60
2022-08-14T03:33:42.313Z,9.50
2022-08-14T03:37:50.883Z,7.63
2022-08-14T03:39:11.889Z,6.60
2022-08-14T03:41:54.120Z,6.20
2022-08-14T03:45:20.111Z,6.10
2022-08-14T03:47:11.727Z,6.28
2022-08-14T03:49:42.315Z,7.10
2022-08-14T03:52:38.453Z,8.17
2022-08-14T03:54:59.332Z,5.72
2022-08-14T03:57:30.648Z,6.40
2022-08-14T03:59:59.854Z,6.10
2022-08-14T04:02:33.350Z,8.40
2022-08-14T04:05:11.759Z,6.87
2022-08-14T04:07:50.043Z,8.27
2022-08-14T04:10:31.589Z,7.07
2022-08-14T04:13:06.218Z,6.43
2022-08-14T04:15:56.208Z,8.38
2022-08-14T04:18:22.027Z,8.13
2022-08-14T04:20:54.619Z,9.10
2022-08-14T04:23:29.719Z,6.70
2022-08-14T04:26:02.403Z,6.38
2022-08-14T04:29:07.861Z,7.43
2022-08-14T04:32:59.092Z,6.93
2022-08-14T04:34:07.848Z,6.57
2022-08-14T04:36:55.647Z,8.73
2022-08-14T04:39:46.530Z,9.23
2022-08-14T04:42:32.941Z,8.80
2022-08-14T04:45:01.302Z,7.93
2022-08-14T04:47:47.627Z,9.70
2022-08-14T04:50:26.193Z,8.30
2022-08-14T04:53:05.500Z,8.80
2022-08-14T04:55:33.771Z,10.85
2022-08-14T04:58:03.693Z,9.43
2022-08-14T05:00:34.166Z,11.55
2022-08-14T05:03:03.568Z,9.88
2022-08-14T05:05:35.249Z,8.38
2022-08-14T05:08:32.292Z,10.38
2022-08-14T05:11:03.111Z,10.63
2022-08-14T05:13:53.228Z,11.15
2022-08-14T05:16:23.177Z,13.60
2022-08-14T05:19:24.921Z,14.48
2022-08-14T05:21:57.442Z,14.43
2022-08-14T05:24:29.206Z,15.53
2022-08-14T05:26:56.825Z,17.98
2022-08-14T05:29:25.456Z,21.02
2022-08-14T05:31:58.065Z,21.20
2022-08-14T05:34:31.824Z,18.30
2022-08-14T05:37:02.850Z,22.80
2022-08-14T05:39:31.789Z,21.35
2022-08-14T05:42:00.568Z,23.65
2022-08-14T05:44:30.898Z,21.25
2022-08-14T05:46:59.218Z,23.35
2022-08-14T05:49:33.320Z,21.97
2022-08-14T05:52:02.990Z,22.83
2022-08-14T05:54:35.233Z,23.20
2022-08-14T05:57:05.016Z,21.92
2022-08-14T05:59:39.248Z,23.75
2022-08-14T06:02:10.001Z,23.93
2022-08-14T06:04:39.314Z,23.35
2022-08-14T06:07:06.995Z,22.45
2022-08-14T06:09:35.776Z,22.42
2022-08-14T06:12:12.114Z,19.92
2022-08-14T06:14:39.881Z,19.37
2022-08-14T06:17:07.444Z,19.80
2022-08-14T06:19:35.053Z,17.05
2022-08-14T06:22:02.852Z,20.08
2022-08-14T06:24:34.700Z,18.45
2022-08-14T06:27:06.370Z,20.03
2022-08-14T06:29:39.122Z,18.60
2022-08-14T06:32:37.716Z,19.67
2022-08-14T06:35:04.018Z,16.85
2022-08-14T06:37:48.935Z,17.92
2022-08-14T06:40:34.611Z,15.20
2022-08-14T06:43:03.866Z,14.88
2022-08-14T06:45:32.636Z,19.50
2022-08-14T06:48:02.950Z,20.00
2022-08-14T06:50:34.029Z,17.60
2022-08-14T06:53:01.566Z,19.37
2022-08-14T06:55:29.724Z,22.70
2022-08-14T06:57:57.827Z,17.95
2022-08-14T07:00:30.922Z,17.80
2022-08-14T07:03:19.269Z,19.67
2022-08-14T07:05:57.680Z,25.67
2022-08-14T07:08:31.086Z,23.67
2022-08-14T07:11:01.420Z,19.45
2022-08-14T07:13:30.736Z,21.00
2022-08-14T07:16:00.675Z,20.73
2022-08-14T07:18:35.475Z,25.20
2022-08-14T07:21:05.409Z,19.90
2022-08-14T07:23:40.116Z,23.45
2022-08-14T07:26:13.630Z,20.30
2022-08-14T07:28:43.534Z,20.50
2022-08-14T07:31:12.640Z,22.03
2022-08-14T07:33:50.138Z,23.10
2022-08-14T07:36:29.921Z,23.40
2022-08-14T07:39:03.277Z,28.33
2022-08-14T07:41:39.909Z,23.75
2022-08-14T07:44:32.869Z,20.67
2022-08-14T07:46:59.206Z,24.83
2022-08-14T07:49:27.637Z,25.02
2022-08-14T07:51:56.878Z,25.20
2022-08-14T07:54:29.843Z,21.55
2022-08-14T07:57:00.521Z,24.13
2022-08-14T07:59:40.947Z,21.80
2022-08-14T08:02:18.087Z,23.77
2022-08-14T08:04:58.987Z,22.60
2022-08-14T08:07:31.041Z,20.48
2022-08-14T08:10:46.350Z,19.27
2022-08-14T08:13:15.537Z,20.63
2022-08-14T08:15:46.467Z,21.92
2022-08-14T08:18:20.526Z,19.20
2022-08-14T08:20:59.492Z,17.40
2022-08-14T08:23:40.624Z,20.73
2022-08-14T08:26:11.349Z,19.73
2022-08-14T08:28:39.404Z,15.93
2022-08-14T08:31:12.837Z,17.98
2022-08-14T08:33:42.613Z,18.27
2022-08-14T08:36:18.573Z,16.87
2022-08-14T08:39:16.919Z,14.85
2022-08-14T08:41:50.488Z,17.67
2022-08-14T08:44:32.075Z,17.00
2022-08-14T08:47:08.127Z,18.25
2022-08-14T08:49:48.198Z,16.73
2022-08-14T08:52:31.970Z,16.33
2022-08-14T08:55:04.306Z,16.27
2022-08-14T08:57:37.731Z,17.48
2022-08-14T09:00:24.356Z,16.50
2022-08-14T09:03:02.185Z,18.23
2022-08-14T09:05:30.682Z,16.27
2022-08-14T09:08:31.433Z,15.45
2022-08-14T09:11:19.735Z,14.15
2022-08-14T09:13:53.113Z,14.80
2022-08-14T09:16:26.099Z,15.90
2022-08-14T09:18:55.980Z,16.30
2022-08-14T09:21:24.909Z,14.45
2022-08-14T09:24:28.922Z,14.40
2022-08-14T09:26:49.392Z,13.20
2022-08-14T09:29:22.840Z,12.57
2022-08-14T09:31:57.325Z,13.20
2022-08-14T09:34:28.489Z,12.40
2022-08-14T09:37:07.995Z,13.18
2022-08-14T09:40:16.650Z,12.02
2022-08-14T09:42:59.861Z,13.03
2022-08-14T09:45:53.089Z,12.00
2022-08-14T09:48:29.975Z,12.57
2022-08-14T09:54:18.290Z,10.73
2022-08-14T09:56:45.805Z,12.17
2022-08-14T09:59:16.709Z,10.40
2022-08-14T10:01:46.141Z,10.07
2022-08-14T10:04:34.942Z,9.93
2022-08-14T10:07:08.193Z,9.30
2022-08-14T10:10:00.220Z,10.30
2022-08-14T10:12:44.859Z,11.82
2022-08-14T10:15:21.107Z,9.43
2022-08-14T10:17:49.774Z,10.68
2022-08-14T10:20:40.684Z,9.63
2022-08-14T10:23:22.076Z,9.93
2022-08-14T10:25:57.983Z,11.48
2022-08-14T10:29:03.901Z,11.80
2022-08-14T10:31:44.487Z,7.45
2022-08-14T10:34:18.615Z,8.60
2022-08-14T10:37:02.449Z,7.17
2022-08-14T10:39:30.474Z,8.77
2022-08-14T10:42:16.615Z,7.57
2022-08-14T10:44:52.633Z,6.47
2022-08-14T10:47:39.514Z,7.82
2022-08-14T10:50:12.077Z,8.50
2022-08-14T10:52:43.231Z,8.65
2022-08-14T10:55:14.287Z,7.10
2022-08-14T10:57:57.040Z,6.28
2022-08-14T11:00:30.336Z,6.82
2022-08-14T11:03:11.205Z,6.93
2022-08-14T11:05:55.713Z,6.25
2022-08-14T11:08:41.900Z,7.30
2022-08-14T11:11:13.722Z,5.45
2022-08-14T11:13:46.523Z,5.85
2022-08-14T11:16:16.062Z,7.60
2022-08-14T11:18:50.727Z,6.57
2022-08-14T11:21:23.421Z,7.70
2022-08-14T11:23:53.637Z,8.50
2022-08-14T11:26:30.154Z,6.43
2022-08-14T11:29:00.316Z,6.23
2022-08-14T11:31:35.568Z,7.13
2022-08-14T11:34:10.456Z,6.28
2022-08-14T11:37:02.144Z,5.90
2022-08-14T11:39:37.756Z,8.20
2022-08-14T11:42:07.658Z,7.83
2022-08-14T11:45:11.402Z,7.22
2022-08-14T11:48:13.749Z,9.35
2022-08-14T11:50:37.935Z,5.03
2022-08-14T11:53:08.814Z,5.63
2022-08-14T11:55:39.158Z,5.57
2022-08-14T11:58:10.614Z,6.43
2022-08-14T12:00:53.696Z,7.25
2022-08-14T12:03:27.034Z,6.00
2022-08-14T12:06:29.043Z,6.28
2022-08-14T12:09:08.804Z,6.17
2022-08-14T12:11:46.903Z,7.57
2022-08-14T12:14:34.872Z,7.78
2022-08-14T12:17:11.928Z,6.00
2022-08-14T12:19:51.318Z,7.93
2022-08-14T12:22:40.020Z,5.87
2022-08-14T12:25:14.725Z,5.75
2022-08-14T12:27:53.416Z,6.15
2022-08-14T12:30:43.581Z,7.80
2022-08-14T12:33:30.735Z,8.20
2022-08-14T12:36:04.141Z,5.27
2022-08-14T12:38:43.483Z,6.63
2022-08-14T12:41:20.553Z,7.93
2022-08-14T12:44:01.957Z,5.75
2022-08-14T12:46:35.890Z,6.15
2022-08-14T12:49:25.971Z,7.30
2022-08-14T12:51:59.036Z,5.53
2022-08-14T12:54:28.969Z,7.60
2022-08-14T12:57:08.190Z,7.35
2022-08-14T12:59:37.114Z,5.10
2022-08-14T13:02:25.454Z,5.30
2022-08-14T13:04:56.630Z,5.65
2022-08-14T13:07:32.778Z,8.07
2022-08-14T13:10:46.022Z,6.53
2022-08-14T13:13:12.629Z,7.43
2022-08-14T13:15:40.576Z,7.77
2022-08-14T13:18:13.084Z,4.72
2022-08-14T13:20:48.036Z,6.30
2022-08-14T13:23:30.375Z,5.25
2022-08-14T13:26:00.301Z,5.45
2022-08-14T13:28:32.716Z,5.63
2022-08-14T13:31:11.220Z,7.35
2022-08-14T13:33:40.672Z,7.20
2022-08-14T13:36:11.081Z,7.50
2022-08-14T13:38:53.775Z,6.20
2022-08-14T13:41:28.086Z,5.53
2022-08-14T13:44:04.653Z,7.53
2022-08-14T13:46:35.728Z,5.95
2022-08-14T13:49:04.294Z,8.90
2022-08-14T13:51:38.627Z,8.50
2022-08-14T13:54:10.271Z,9.83
2022-08-14T13:56:40.938Z,5.50
2022-08-14T13:59:10.323Z,6.15
2022-08-14T14:01:43.990Z,5.88
2022-08-14T14:04:19.801Z,8.50
2022-08-14T14:06:52.168Z,5.60
2022-08-14T14:09:32.704Z,5.72
2022-08-14T14:12:36.738Z,5.88
2022-08-14T14:14:56.878Z,8.13
2022-08-14T14:17:29.018Z,5.88
2022-08-14T14:19:59.772Z,7.87
2022-08-14T14:22:35.630Z,9.32
2022-08-14T14:25:04.102Z,6.80
2022-08-14T14:27:41.555Z,8.50
2022-08-14T14:30:46.004Z,6.95
2022-08-14T14:33:05.322Z,6.27
2022-08-14T14:35:43.448Z,5.07
2022-08-14T14:38:17.112Z,6.78
2022-08-14T14:40:52.629Z,7.32
2022-08-14T14:43:25.096Z,7.35
2022-08-14T14:45:55.687Z,5.60
2022-08-14T14:48:28.266Z,7.30
2022-08-14T14:51:01.582Z,7.07
2022-08-14T14:53:39.220Z,6.05
2022-08-14T14:56:47.570Z,9.13
2022-08-14T14:58:58.378Z,7.07
2022-08-14T15:01:26.578Z,5.60
2022-08-14T15:03:55.534Z,6.25
2022-08-14T15:06:30.243Z,5.93
2022-08-14T15:09:00.925Z,6.00
2022-08-14T15:11:30.134Z,7.03
2022-08-14T15:13:58.830Z,6.40
2022-08-14T15:16:28.532Z,5.82
2022-08-14T15:18:56.127Z,7.47
2022-08-14T15:21:25.276Z,5.05
2022-08-14T15:23:55.397Z,5.03
2022-08-14T15:26:31.901Z,5.20
2022-08-14T15:29:05.835Z,4.70
2022-08-14T15:31:36.614Z,8.27
2022-08-14T15:34:43.445Z,7.72
2022-08-14T15:37:00.295Z,6.93
2022-08-14T15:39:33.784Z,5.72
2022-08-14T15:42:14.653Z,5.20
2022-08-14T15:44:58.414Z,5.00
2022-08-14T15:47:31.592Z,7.82
2022-08-14T15:50:04.371Z,6.70
2022-08-14T15:52:37.183Z,5.18
2022-08-14T15:55:09.406Z,5.18
2022-08-14T15:57:37.564Z,4.80
2022-08-14T16:00:43.658Z,5.28
2022-08-14T16:03:16.527Z,5.73
2022-08-14T16:05:46.125Z,6.35
2022-08-14T16:08:27.063Z,7.85
2022-08-14T16:11:01.136Z,6.18
2022-08-14T16:13:39.276Z,5.85
2022-08-14T16:16:47.855Z,5.60
2022-08-14T16:19:07.416Z,5.35
2022-08-14T16:21:39.939Z,4.72
2022-08-14T16:24:27.936Z,5.32
2022-08-14T16:27:00.763Z,4.70
2022-08-14T16:29:34.596Z,5.03
2022-08-14T16:32:32.873Z,6.82
2022-08-14T16:34:54.963Z,6.78
2022-08-14T16:37:30.540Z,7.10
2022-08-14T16:40:00.728Z,5.57
2022-08-14T16:42:39.343Z,5.13
2022-08-14T16:45:18.744Z,5.65
2022-08-14T16:47:47.845Z,8.10
2022-08-14T16:50:40.467Z,5.75
2022-08-14T16:53:07.361Z,6.20
2022-08-14T16:55:53.491Z,4.10
2022-08-14T16:58:29.859Z,4.43
2022-08-14T17:01:16.270Z,6.22
2022-08-14T17:04:04.654Z,4.25
2022-08-14T17:06:51.142Z,3.95
2022-08-14T17:09:32.974Z,4.93
2022-08-14T17:12:28.608Z,5.55
2022-08-14T17:15:11.168Z,4.40
2022-08-14T17:17:38.786Z,4.78
2022-08-14T17:20:53.902Z,4.10
2022-08-14T17:23:00.185Z,4.53
2022-08-14T17:25:30.112Z,4.78
2022-08-14T17:28:50.632Z,4.32
2022-08-14T17:31:07.014Z,4.68
2022-08-14T17:36:25.365Z,4.00
2022-08-14T17:39:06.702Z,4.70
2022-08-14T17:41:43.580Z,4.38
2022-08-14T17:44:14.639Z,4.10
2022-08-14T17:46:55.199Z,4.10
2022-08-14T17:49:40.419Z,4.67
2022-08-14T17:52:33.873Z,5.93
2022-08-14T17:55:05.329Z,4.18
2022-08-14T17:57:35.195Z,4.40
2022-08-14T18:00:13.184Z,5.90
2022-08-14T18:02:50.371Z,4.80
2022-08-14T18:05:23.185Z,5.07
2022-08-14T18:08:31.406Z,4.53
2022-08-14T18:10:55.006Z,6.35
2022-08-14T18:13:49.840Z,5.07
2022-08-14T18:16:20.553Z,5.50
2022-08-14T18:18:51.122Z,4.93
2022-08-14T18:21:39.879Z,5.05
2022-08-14T18:24:20.411Z,4.80
2022-08-14T18:27:22.846Z,4.50
2022-08-14T18:29:55.724Z,7.30
2022-08-14T18:32:32.666Z,5.32
2022-08-14T18:35:11.030Z,4.25
2022-08-14T18:37:42.262Z,5.78
2022-08-14T18:40:34.533Z,5.00
2022-08-14T18:43:03.905Z,5.20
2022-08-14T18:45:33.948Z,7.85
2022-08-14T18:48:18.567Z,5.40
2022-08-14T18:50:52.582Z,4.95
2022-08-14T18:53:24.898Z,4.65
2022-08-14T18:56:09.842Z,6.70
2022-08-14T18:58:59.009Z,6.10
2022-08-14T19:01:33.281Z,6.85
2022-08-14T19:04:02.303Z,5.93
2022-08-14T19:06:40.303Z,6.40
2022-08-14T19:09:08.895Z,5.50
2022-08-14T19:11:37.603Z,8.85
2022-08-14T19:14:07.026Z,7.03
2022-08-14T19:16:37.230Z,6.28
2022-08-14T19:19:13.164Z,6.57
2022-08-14T19:22:01.963Z,6.67
2022-08-14T19:24:43.941Z,5.10
2022-08-14T19:27:24.773Z,5.60
2022-08-14T19:30:20.081Z,8.55
2022-08-14T19:32:53.081Z,5.75
2022-08-14T19:35:55.100Z,6.43
2022-08-14T19:38:47.859Z,5.68
2022-08-14T19:41:29.356Z,6.15
2022-08-14T19:44:15.382Z,5.07
2022-08-14T19:47:01.041Z,7.13
2022-08-14T19:50:08.397Z,5.20
2022-08-14T19:52:29.682Z,6.57
2022-08-14T19:54:59.745Z,9.23
2022-08-14T19:57:30.898Z,7.57
2022-08-14T20:00:28.255Z,5.53
2022-08-14T20:03:11.338Z,6.33
2022-08-14T20:05:43.169Z,6.20
2022-08-14T20:10:59.869Z,6.97
2022-08-14T20:11:41.596Z,8.00
2022-08-14T20:14:11.657Z,4.97
2022-08-14T20:17:01.929Z,5.83
2022-08-14T20:19:37.937Z,5.18
2022-08-14T20:22:36.784Z,5.82
2022-08-14T20:25:37.625Z,5.45
2022-08-14T20:28:29.052Z,5.28
2022-08-14T20:31:18.764Z,6.07
2022-08-14T20:34:24.659Z,6.90
2022-08-14T20:37:09.553Z,6.18
2022-08-14T20:39:54.285Z,7.10
2022-08-14T20:42:43.620Z,5.82
2022-08-14T20:45:20.004Z,5.43
2022-08-14T20:48:07.246Z,5.88
2022-08-14T20:50:45.139Z,6.40
2022-08-14T20:53:26.617Z,5.85
2022-08-14T20:56:00.534Z,6.03
2022-08-14T20:58:44.364Z,7.07
2022-08-14T21:01:12.245Z,5.57
2022-08-14T21:03:56.400Z,5.93
2022-08-14T21:07:23.449Z,6.95
2022-08-14T21:09:43.698Z,6.00
2022-08-14T21:12:33.830Z,7.27
2022-08-14T21:15:11.020Z,5.85
2022-08-14T21:17:41.547Z,5.50
2022-08-14T21:20:25.953Z,5.25
2022-08-14T21:22:56.627Z,6.35
2022-08-14T21:25:29.070Z,6.40
2022-08-14T21:28:04.688Z,5.88
2022-08-14T21:30:41.859Z,7.20
2022-08-14T21:33:15.833Z,10.75
2022-08-14T21:35:47.356Z,13.35
2022-08-14T21:38:18.037Z,17.23
2022-08-14T21:40:51.537Z,13.20
2022-08-14T21:43:22.326Z,11.43
2022-08-14T21:45:55.850Z,6.60
2022-08-14T21:48:29.254Z,7.97
2022-08-14T21:51:54.430Z,7.27
2022-08-14T21:53:59.232Z,6.00
2022-08-14T21:56:37.399Z,9.98
2022-08-14T21:59:18.061Z,6.28
2022-08-14T22:02:00.515Z,6.75
2022-08-14T22:04:40.367Z,6.10
2022-08-14T22:07:16.619Z,6.95
2022-08-14T22:09:54.689Z,6.03
2022-08-14T22:12:58.369Z,6.72
2022-08-14T22:15:15.730Z,6.90
2022-08-14T22:17:45.518Z,7.27
2022-08-14T22:20:20.801Z,6.13
2022-08-14T22:22:48.546Z,5.93
2022-08-14T22:25:33.415Z,6.78
2022-08-14T22:28:12.253Z,8.07
2022-08-14T22:30:41.745Z,20.77
2022-08-14T22:33:09.957Z,19.48
2022-08-14T22:35:41.199Z,16.15
2022-08-14T22:38:36.243Z,12.88
2022-08-14T22:41:25.650Z,6.88
2022-08-14T22:43:51.761Z,7.23
2022-08-14T22:46:21.432Z,11.95
2022-08-14T22:48:49.912Z,11.30
2022-08-14T22:51:20.637Z,8.75
2022-08-14T22:53:52.371Z,9.27
2022-08-14T22:56:30.249Z,9.03
2022-08-14T22:59:01.314Z,11.65
2022-08-14T23:01:55.566Z,8.73
2022-08-14T23:04:34.113Z,9.20
2022-08-14T23:07:07.482Z,9.95
2022-08-14T23:09:56.389Z,19.33
2022-08-14T23:12:34.802Z,8.35
2022-08-14T23:15:03.887Z,10.75
2022-08-14T23:17:39.475Z,9.50
2022-08-14T23:20:18.805Z,10.27
2022-08-14T23:22:51.806Z,8.10
2022-08-14T23:25:57.366Z,8.95
2022-08-14T23:28:33.634Z,7.80
2022-08-14T23:31:08.180Z,8.15
2022-08-14T23:33:45.710Z,7.85
2022-08-14T23:36:31.678Z,9.67
2022-08-14T23:39:00.426Z,8.30
2022-08-14T23:41:46.203Z,11.93
2022-08-14T23:44:16.273Z,8.73
2022-08-14T23:46:44.156Z,8.57
2022-08-14T23:49:12.539Z,9.20
2022-08-14T23:51:40.240Z,8.07
2022-08-14T23:54:48.257Z,8.52
2022-08-14T23:57:03.130Z,7.97
2022-08-14T23:59:32.423Z,8.95
